createdAt,value
2019-05-17T00:01:41.869Z,80.73
2019-05-17T00:04:11.468Z,80.84
2019-05-17T00:06:41.111Z,79.87
2019-05-17T00:09:11.124Z,80.09
2019-05-17T00:11:40.843Z,80.07
2019-05-17T00:14:10.734Z,79.52
2019-05-17T00:16:40.774Z,79.54
2019-05-17T00:19:10.730Z,80.10
2019-05-17T00:21:40.506Z,80.02
2019-05-17T00:24:10.208Z,79.37
2019-05-17T00:26:40.057Z,79.13
2019-05-17T00:29:09.919Z,79.57
2019-05-17T00:31:39.596Z,79.94
2019-05-17T00:34:09.314Z,80.48
2019-05-17T00:36:38.902Z,79.68
2019-05-17T00:39:08.847Z,79.83
2019-05-17T00:41:38.416Z,79.77
2019-05-17T00:44:08.013Z,79.21
2019-05-17T00:46:37.731Z,79.51
2019-05-17T00:49:07.295Z,79.85
2019-05-17T00:51:37.047Z,79.58
2019-05-17T00:54:07.903Z,79.42
2019-05-17T00:56:37.619Z,79.38
2019-05-17T00:59:07.446Z,78.82
2019-05-17T01:01:37.126Z,79.90
2019-05-17T01:04:06.977Z,79.42
2019-05-17T01:06:37.584Z,79.07
2019-05-17T01:09:08.304Z,79.53
2019-05-17T01:11:38.122Z,79.87
2019-05-17T01:14:07.749Z,80.27
2019-05-17T01:16:37.450Z,81.12
2019-05-17T01:19:07.163Z,80.80
2019-05-17T01:21:36.917Z,80.86
2019-05-17T01:24:06.951Z,81.78
2019-05-17T01:26:37.372Z,82.29
2019-05-17T01:29:07.101Z,82.15
2019-05-17T01:31:37.382Z,81.87
2019-05-17T01:34:07.518Z,81.33
2019-05-17T01:36:37.270Z,81.13
2019-05-17T01:39:17.654Z,81.03
2019-05-17T01:41:38.261Z,80.50
2019-05-17T01:44:07.914Z,80.79
2019-05-17T01:46:40.048Z,80.76
2019-05-17T01:49:09.631Z,80.21
2019-05-17T01:51:39.146Z,81.24
2019-05-17T01:54:08.705Z,81.42
2019-05-17T01:56:38.286Z,81.62
2019-05-17T01:59:07.887Z,82.06
2019-05-17T02:01:42.466Z,81.60
2019-05-17T02:04:11.991Z,81.83
2019-05-17T02:06:41.517Z,82.33
2019-05-17T02:09:11.207Z,82.75
2019-05-17T02:11:40.763Z,83.51
2019-05-17T02:14:10.309Z,82.80
2019-05-17T02:16:39.959Z,82.19
2019-05-17T02:19:09.545Z,81.65
2019-05-17T02:21:39.279Z,82.04
2019-05-17T02:24:10.819Z,81.14
2019-05-17T02:26:40.478Z,80.75
2019-05-17T02:29:11.956Z,81.78
2019-05-17T02:31:43.523Z,82.42
2019-05-17T02:34:14.122Z,83.05
2019-05-17T02:36:43.953Z,82.31
2019-05-17T02:39:14.011Z,82.61
2019-05-17T02:41:43.773Z,82.97
2019-05-17T02:44:13.388Z,84.71
2019-05-17T02:46:43.576Z,84.34
2019-05-17T02:49:13.856Z,83.71
2019-05-17T02:51:43.521Z,83.05
2019-05-17T02:54:13.499Z,83.40
2019-05-17T02:56:43.769Z,82.85
2019-05-17T02:59:13.861Z,83.39
2019-05-17T03:01:44.434Z,83.87
2019-05-17T03:04:14.307Z,83.17
2019-05-17T03:06:44.229Z,82.69
2019-05-17T03:09:15.659Z,82.22
2019-05-17T03:11:45.227Z,82.62
2019-05-17T03:14:14.769Z,83.26
2019-05-17T03:16:44.570Z,83.36
2019-05-17T03:19:14.238Z,83.01
2019-05-17T03:21:43.941Z,82.81
2019-05-17T03:24:13.953Z,82.69
2019-05-17T03:26:43.658Z,83.00
2019-05-17T03:29:13.853Z,82.74
2019-05-17T03:31:50.819Z,82.93
2019-05-17T03:34:17.197Z,82.85
2019-05-17T03:36:47.442Z,83.75
2019-05-17T03:39:17.583Z,84.00
2019-05-17T03:41:47.168Z,83.39
2019-05-17T03:44:16.754Z,82.84
2019-05-17T03:46:46.341Z,82.47
2019-05-17T03:49:22.064Z,82.14
2019-05-17T03:51:52.929Z,81.20
2019-05-17T03:54:22.808Z,80.42
2019-05-17T03:56:53.207Z,81.47
2019-05-17T03:59:24.217Z,82.42
2019-05-17T04:01:54.057Z,83.29
2019-05-17T04:04:23.622Z,82.47
2019-05-17T04:06:53.197Z,83.48
2019-05-17T04:09:23.002Z,83.44
2019-05-17T04:11:53.577Z,84.15
2019-05-17T04:14:23.798Z,83.28
2019-05-17T04:16:53.881Z,83.00
2019-05-17T04:19:24.102Z,83.56
2019-05-17T04:21:53.878Z,82.56
2019-05-17T04:24:26.155Z,82.41
2019-05-17T04:26:55.707Z,83.63
2019-05-17T04:29:25.253Z,83.97
2019-05-17T04:31:54.937Z,83.17
2019-05-17T04:34:24.421Z,83.13
2019-05-17T04:36:54.085Z,82.88
2019-05-17T04:39:23.649Z,82.93
2019-05-17T04:41:54.740Z,82.52
2019-05-17T04:44:24.657Z,81.98
2019-05-17T04:46:57.348Z,82.08
2019-05-17T04:49:26.871Z,81.51
2019-05-17T04:51:56.445Z,83.02
2019-05-17T04:54:26.272Z,82.43
2019-05-17T04:56:55.899Z,81.84
2019-05-17T04:59:25.479Z,81.73
2019-05-17T05:01:55.114Z,80.77
2019-05-17T05:04:26.591Z,82.64
2019-05-17T05:06:56.205Z,82.57
2019-05-17T05:09:26.106Z,81.62
2019-05-17T05:12:01.446Z,80.71
2019-05-17T05:14:26.914Z,80.19
2019-05-17T05:16:56.605Z,78.98
2019-05-17T05:19:26.143Z,80.03
2019-05-17T05:21:55.810Z,80.24
2019-05-17T05:24:25.456Z,79.86
2019-05-17T05:26:55.419Z,80.12
2019-05-17T05:29:25.154Z,79.11
2019-05-17T05:31:54.914Z,80.83
2019-05-17T05:34:24.438Z,81.20
2019-05-17T05:36:54.144Z,80.09
2019-05-17T05:39:23.664Z,79.71
2019-05-17T05:42:06.541Z,78.85
2019-05-17T05:44:24.611Z,79.00
2019-05-17T05:46:54.329Z,77.83
2019-05-17T05:49:23.896Z,77.21
2019-05-17T05:51:53.569Z,77.86
2019-05-17T05:54:26.059Z,78.90
2019-05-17T05:56:55.688Z,79.15
2019-05-17T05:59:25.348Z,78.56
2019-05-17T06:01:54.969Z,78.43
2019-05-17T06:04:24.686Z,77.80
2019-05-17T06:06:54.440Z,77.94
2019-05-17T06:09:24.242Z,77.77
2019-05-17T06:11:53.941Z,78.37
2019-05-17T06:14:23.926Z,76.81
2019-05-17T06:16:54.547Z,77.27
2019-05-17T06:19:24.224Z,76.25
2019-05-17T06:21:56.219Z,76.02
2019-05-17T06:24:25.074Z,76.19
2019-05-17T06:26:54.747Z,74.80
2019-05-17T06:29:24.455Z,75.19
2019-05-17T06:31:53.994Z,75.15
2019-05-17T06:34:24.668Z,75.03
2019-05-17T06:36:54.324Z,74.89
2019-05-17T06:39:24.048Z,75.50
2019-05-17T06:41:54.040Z,72.96
2019-05-17T06:44:23.644Z,70.18
2019-05-17T06:46:53.280Z,70.81
2019-05-17T06:49:22.941Z,71.61
2019-05-17T06:51:52.637Z,71.58
2019-05-17T06:54:22.256Z,71.34
2019-05-17T06:56:52.639Z,71.13
2019-05-17T06:59:22.441Z,73.08
2019-05-17T07:01:52.429Z,73.90
2019-05-17T07:04:21.946Z,74.28
2019-05-17T07:07:10.803Z,72.93
2019-05-17T07:09:40.745Z,73.33
2019-05-17T07:12:10.571Z,73.92
2019-05-17T07:14:40.340Z,73.35
2019-05-17T07:17:10.093Z,74.24
2019-05-17T07:19:40.187Z,74.95
2019-05-17T07:22:10.174Z,74.42
2019-05-17T07:24:39.839Z,73.39
2019-05-17T07:27:09.959Z,72.37
2019-05-17T07:29:40.341Z,71.42
2019-05-17T07:32:10.115Z,71.03
2019-05-17T07:34:40.291Z,69.78
2019-05-17T07:37:10.661Z,67.36
2019-05-17T07:39:42.292Z,67.96
2019-05-17T07:42:11.628Z,68.14
2019-05-17T07:44:44.041Z,66.34
2019-05-17T07:47:13.781Z,62.90
2019-05-17T07:49:43.296Z,64.67
2019-05-17T07:52:12.940Z,64.82
2019-05-17T07:54:42.535Z,64.77
2019-05-17T07:57:12.302Z,64.29
2019-05-17T07:59:43.916Z,64.05
2019-05-17T08:02:13.544Z,63.86
2019-05-17T08:04:43.321Z,63.35
2019-05-17T08:07:13.019Z,61.95
2019-05-17T08:09:42.521Z,61.69
2019-05-17T08:12:12.080Z,60.57
2019-05-17T08:14:41.738Z,60.51
2019-05-17T08:17:12.972Z,58.97
2019-05-17T08:19:42.474Z,58.37
2019-05-17T08:22:12.100Z,57.96
2019-05-17T08:24:41.637Z,56.53
2019-05-17T08:27:11.228Z,56.52
2019-05-17T08:29:41.013Z,56.90
2019-05-17T08:32:10.525Z,54.89
2019-05-17T08:34:40.218Z,57.02
2019-05-17T08:37:09.887Z,56.39
2019-05-17T08:39:40.098Z,57.41
2019-05-17T08:42:09.946Z,55.53
2019-05-17T08:44:42.346Z,55.89
2019-05-17T08:47:11.944Z,54.19
2019-05-17T08:49:41.530Z,53.89
2019-05-17T08:52:11.410Z,53.16
2019-05-17T08:54:42.931Z,50.92
2019-05-17T08:57:12.237Z,51.14
2019-05-17T08:59:41.777Z,50.02
2019-05-17T09:02:19.722Z,50.31
2019-05-17T09:04:46.127Z,48.14
2019-05-17T09:07:16.045Z,49.06
2019-05-17T09:09:45.640Z,50.32
2019-05-17T09:12:15.186Z,49.42
2019-05-17T09:14:44.871Z,49.59
2019-05-17T09:17:14.391Z,49.33
2019-05-17T09:19:45.532Z,49.55
2019-05-17T09:22:15.140Z,49.23
2019-05-17T09:24:47.124Z,46.93
2019-05-17T09:27:16.634Z,44.99
2019-05-17T09:29:46.505Z,45.70
2019-05-17T09:32:16.014Z,47.22
2019-05-17T09:34:45.754Z,48.37
2019-05-17T09:37:18.780Z,47.24
2019-05-17T09:39:46.666Z,45.61
2019-05-17T09:42:16.463Z,43.99
2019-05-17T09:44:46.079Z,42.59
2019-05-17T09:47:15.929Z,41.27
2019-05-17T09:49:45.527Z,41.96
2019-05-17T09:52:15.511Z,41.22
2019-05-17T09:54:45.599Z,41.39
2019-05-17T09:57:15.210Z,41.26
2019-05-17T09:59:44.924Z,43.17
2019-05-17T10:02:14.614Z,44.76
2019-05-17T10:04:44.213Z,44.77
2019-05-17T10:07:13.819Z,44.58
2019-05-17T10:09:43.560Z,43.61
2019-05-17T10:12:13.104Z,43.08
2019-05-17T10:14:45.443Z,42.52
2019-05-17T10:17:15.015Z,42.98
2019-05-17T10:19:44.542Z,42.19
2019-05-17T10:22:14.225Z,40.97
2019-05-17T10:24:43.765Z,39.71
2019-05-17T10:27:14.697Z,39.45
2019-05-17T10:29:44.508Z,39.39
2019-05-17T10:32:14.043Z,41.23
2019-05-17T10:34:43.574Z,42.52
2019-05-17T10:37:14.331Z,43.66
2019-05-17T10:39:43.946Z,43.79
2019-05-17T10:42:13.660Z,44.58
2019-05-17T10:44:47.572Z,44.08
2019-05-17T10:47:14.724Z,45.83
2019-05-17T10:49:44.836Z,45.74
2019-05-17T10:52:14.638Z,44.70
2019-05-17T10:54:44.517Z,45.05
2019-05-17T10:57:14.315Z,45.43
2019-05-17T10:59:44.294Z,47.48
2019-05-17T11:02:13.929Z,48.25
2019-05-17T11:04:43.594Z,47.37
2019-05-17T11:07:13.217Z,47.33
2019-05-17T11:09:42.828Z,47.74
2019-05-17T11:12:12.513Z,46.98
2019-05-17T11:14:52.368Z,47.51
2019-05-17T11:17:13.707Z,47.67
2019-05-17T11:19:43.379Z,47.00
2019-05-17T11:22:13.944Z,47.05
2019-05-17T11:24:43.729Z,47.34
2019-05-17T11:27:14.001Z,48.46
2019-05-17T11:29:43.651Z,48.92
2019-05-17T11:32:13.260Z,49.00
2019-05-17T11:34:42.948Z,49.14
2019-05-17T11:37:12.609Z,47.94
2019-05-17T11:39:42.222Z,48.16
2019-05-17T11:42:11.907Z,47.98
2019-05-17T11:44:41.697Z,47.33
2019-05-17T11:47:11.278Z,47.48
2019-05-17T11:49:40.839Z,47.58
2019-05-17T11:52:10.640Z,47.94
2019-05-17T11:54:40.296Z,47.17
2019-05-17T11:57:12.345Z,46.97
2019-05-17T11:59:41.242Z,47.61
2019-05-17T12:02:10.788Z,47.30
2019-05-17T12:04:40.578Z,48.26
2019-05-17T12:07:10.552Z,48.99
2019-05-17T12:09:40.118Z,48.48
2019-05-17T12:12:09.713Z,49.11
2019-05-17T12:14:39.350Z,47.61
2019-05-17T12:17:09.012Z,47.73
2019-05-17T12:19:41.516Z,48.83
2019-05-17T12:22:12.419Z,47.91
2019-05-17T12:24:42.000Z,48.07
2019-05-17T12:27:13.399Z,47.55
2019-05-17T12:29:43.269Z,47.42
2019-05-17T12:32:16.852Z,48.07
2019-05-17T12:34:46.411Z,48.34
2019-05-17T12:37:16.396Z,45.63
2019-05-17T12:39:48.866Z,46.14
2019-05-17T12:42:18.453Z,45.14
2019-05-17T12:44:48.142Z,44.00
2019-05-17T12:47:19.466Z,43.79
2019-05-17T12:49:49.154Z,44.40
2019-05-17T12:52:20.693Z,43.62
2019-05-17T12:54:50.555Z,44.80
2019-05-17T12:57:20.259Z,44.31
2019-05-17T12:59:49.968Z,44.35
2019-05-17T13:02:19.732Z,44.79
2019-05-17T13:04:49.358Z,46.54
2019-05-17T13:07:19.052Z,47.34
2019-05-17T13:09:48.567Z,46.40
2019-05-17T13:12:18.151Z,46.34
2019-05-17T13:14:50.771Z,45.83
2019-05-17T13:17:20.404Z,46.31
2019-05-17T13:19:50.168Z,45.76
2019-05-17T13:22:20.354Z,45.12
2019-05-17T13:24:49.994Z,45.37
2019-05-17T13:27:19.697Z,45.54
2019-05-17T13:29:49.352Z,45.78
2019-05-17T13:32:19.123Z,45.26
2019-05-17T13:34:48.641Z,44.29
2019-05-17T13:37:18.354Z,45.47
2019-05-17T13:39:48.345Z,45.62
2019-05-17T13:42:18.131Z,45.55
2019-05-17T13:44:47.874Z,45.47
2019-05-17T13:47:17.651Z,45.53
2019-05-17T13:49:47.276Z,45.44
2019-05-17T13:52:18.211Z,45.96
2019-05-17T13:54:47.877Z,46.53
2019-05-17T13:57:17.608Z,46.17
2019-05-17T13:59:47.504Z,46.01
2019-05-17T14:02:17.311Z,45.26
2019-05-17T14:04:47.117Z,45.05
2019-05-17T14:07:16.949Z,45.38
2019-05-17T14:09:46.587Z,45.32
2019-05-17T14:12:17.868Z,45.82
2019-05-17T14:14:47.534Z,46.00
2019-05-17T14:17:17.207Z,45.64
2019-05-17T14:19:46.878Z,46.28
2019-05-17T14:22:16.868Z,46.75
2019-05-17T14:24:46.554Z,46.91
2019-05-17T14:27:16.172Z,47.11
2019-05-17T14:29:45.853Z,47.70
2019-05-17T14:32:15.582Z,47.13
2019-05-17T14:34:45.323Z,47.49
2019-05-17T14:37:14.884Z,47.62
2019-05-17T14:39:44.483Z,47.73
2019-05-17T14:42:14.218Z,47.55
2019-05-17T14:44:43.989Z,48.10
2019-05-17T14:47:13.541Z,48.03
2019-05-17T14:49:43.058Z,47.45
2019-05-17T14:52:12.739Z,46.94
2019-05-17T14:54:42.565Z,47.07
2019-05-17T14:57:12.147Z,46.84
2019-05-17T14:59:42.118Z,46.94
2019-05-17T15:02:11.735Z,46.79
2019-05-17T15:04:41.295Z,47.27
2019-05-17T15:07:11.543Z,46.31
2019-05-17T15:09:41.192Z,46.51
2019-05-17T15:12:26.877Z,45.83
2019-05-17T15:14:43.738Z,45.86
2019-05-17T15:17:13.302Z,45.11
2019-05-17T15:19:43.406Z,44.38
2019-05-17T15:22:13.407Z,44.67
2019-05-17T15:24:42.948Z,45.28
2019-05-17T15:27:12.540Z,45.53
2019-05-17T15:29:42.470Z,44.65
2019-05-17T15:32:13.853Z,44.42
2019-05-17T15:34:43.676Z,45.15
2019-05-17T15:37:15.622Z,45.07
2019-05-17T15:39:45.739Z,45.54
2019-05-17T15:42:15.490Z,46.01
2019-05-17T15:44:48.010Z,45.77
2019-05-17T15:47:17.758Z,45.46
2019-05-17T15:49:47.420Z,45.12
2019-05-17T15:52:18.308Z,46.25
2019-05-17T15:54:48.774Z,46.06
2019-05-17T15:57:18.747Z,45.95
2019-05-17T15:59:48.469Z,46.84
2019-05-17T16:02:18.131Z,46.85
2019-05-17T16:04:47.806Z,46.87
2019-05-17T16:07:17.559Z,47.06
2019-05-17T16:09:47.430Z,47.21
2019-05-17T16:12:17.094Z,47.13
2019-05-17T16:14:47.905Z,46.72
2019-05-17T16:17:17.517Z,45.87
2019-05-17T16:19:47.056Z,46.75
2019-05-17T16:22:16.694Z,47.14
2019-05-17T16:24:46.315Z,46.96
2019-05-17T16:27:16.151Z,47.22
2019-05-17T16:29:45.962Z,46.48
2019-05-17T16:32:15.633Z,47.13
2019-05-17T16:34:45.423Z,46.21
2019-05-17T16:37:17.132Z,46.12
2019-05-17T16:39:46.754Z,46.26
2019-05-17T16:42:16.423Z,45.59
2019-05-17T16:44:46.322Z,45.42
2019-05-17T16:47:16.133Z,45.45
2019-05-17T16:49:48.744Z,45.51
2019-05-17T16:52:18.814Z,46.03
2019-05-17T16:54:48.826Z,45.67
2019-05-17T16:57:18.858Z,45.33
2019-05-17T16:59:48.852Z,46.63
2019-05-17T17:02:22.002Z,46.58
2019-05-17T17:04:51.970Z,45.76
2019-05-17T17:07:21.783Z,45.49
2019-05-17T17:09:51.551Z,45.53
2019-05-17T17:12:21.570Z,45.87
2019-05-17T17:14:51.445Z,45.52
2019-05-17T17:17:21.562Z,45.34
2019-05-17T17:19:51.450Z,45.81
2019-05-17T17:22:20.998Z,45.89
2019-05-17T17:24:50.603Z,46.00
2019-05-17T17:27:20.170Z,45.99
2019-05-17T17:29:49.800Z,45.77
2019-05-17T17:32:21.447Z,45.40
2019-05-17T17:34:53.652Z,45.02
2019-05-17T17:37:24.631Z,45.33
2019-05-17T17:39:54.354Z,45.09
2019-05-17T17:42:24.150Z,45.91
2019-05-17T17:44:54.360Z,46.46
2019-05-17T17:47:24.287Z,46.38
2019-05-17T17:49:55.960Z,46.17
2019-05-17T17:52:25.968Z,45.82
2019-05-17T17:54:56.014Z,46.76
2019-05-17T17:57:25.749Z,46.48
2019-05-17T17:59:55.795Z,46.30
2019-05-17T18:02:26.173Z,46.50
2019-05-17T18:04:55.895Z,46.82
2019-05-17T18:07:25.490Z,47.13
2019-05-17T18:09:55.153Z,47.25
2019-05-17T18:12:25.022Z,47.45
2019-05-17T18:14:54.776Z,47.20
2019-05-17T18:17:24.389Z,47.16
2019-05-17T18:19:54.257Z,47.05
2019-05-17T18:22:25.504Z,47.22
2019-05-17T18:24:55.077Z,47.33
2019-05-17T18:27:24.775Z,47.66
2019-05-17T18:29:54.593Z,48.35
2019-05-17T18:32:24.310Z,48.89
2019-05-17T18:34:54.112Z,48.70
2019-05-17T18:37:26.283Z,49.00
2019-05-17T18:39:55.922Z,49.04
2019-05-17T18:42:25.723Z,48.69
2019-05-17T18:44:55.459Z,49.00
2019-05-17T18:47:25.264Z,49.19
2019-05-17T18:49:55.179Z,49.42
2019-05-17T18:52:24.794Z,49.76
2019-05-17T18:54:55.929Z,50.42
2019-05-17T18:57:25.792Z,51.05
2019-05-17T18:59:55.428Z,51.04
2019-05-17T19:02:25.012Z,51.08
2019-05-17T19:04:54.782Z,50.99
2019-05-17T19:07:24.492Z,50.96
2019-05-17T19:09:54.516Z,51.18
2019-05-17T19:12:27.136Z,51.17
2019-05-17T19:15:00.448Z,51.34
2019-05-17T19:17:28.292Z,51.82
2019-05-17T19:19:57.930Z,51.91
2019-05-17T19:22:27.677Z,51.61
2019-05-17T19:24:57.236Z,51.87
2019-05-17T19:27:27.016Z,52.08
2019-05-17T19:29:59.876Z,52.14
2019-05-17T19:32:31.084Z,52.28
2019-05-17T19:35:03.677Z,52.84
2019-05-17T19:37:33.436Z,53.42
2019-05-17T19:40:04.007Z,54.22
2019-05-17T19:42:33.736Z,55.05
2019-05-17T19:45:05.247Z,55.92
2019-05-17T19:47:35.038Z,55.83
2019-05-17T19:50:06.916Z,55.83
2019-05-17T19:52:36.521Z,56.33
2019-05-17T19:55:07.522Z,56.52
2019-05-17T19:57:37.562Z,56.43
2019-05-17T20:00:12.487Z,56.74
2019-05-17T20:02:42.015Z,56.52
2019-05-17T20:05:14.098Z,56.64
2019-05-17T20:07:43.886Z,56.44
2019-05-17T20:10:13.725Z,56.58
2019-05-17T20:12:43.585Z,56.93
2019-05-17T20:15:17.841Z,57.01
2019-05-17T20:17:45.127Z,57.47
2019-05-17T20:20:15.889Z,57.63
2019-05-17T20:22:48.463Z,57.43
2019-05-17T20:25:19.827Z,57.55
2019-05-17T20:27:49.469Z,58.20
2019-05-17T20:30:20.123Z,59.16
2019-05-17T20:32:51.753Z,59.20
2019-05-17T20:35:21.566Z,60.48
2019-05-17T20:37:51.064Z,61.54
2019-05-17T20:40:21.168Z,61.14
2019-05-17T20:42:50.772Z,61.49
2019-05-17T20:45:32.579Z,62.00
2019-05-17T20:47:51.682Z,62.03
2019-05-17T20:50:21.458Z,62.33
2019-05-17T20:52:51.191Z,62.67
2019-05-17T20:55:20.957Z,63.52
2019-05-17T20:57:50.627Z,63.78
2019-05-17T21:00:20.390Z,64.04
2019-05-17T21:02:50.268Z,64.59
2019-05-17T21:05:20.080Z,65.12
2019-05-17T21:07:51.005Z,66.05
2019-05-17T21:10:20.699Z,66.29
2019-05-17T21:12:50.492Z,67.59
2019-05-17T21:15:20.233Z,68.57
2019-05-17T21:17:49.856Z,68.85
2019-05-17T21:20:20.615Z,69.04
2019-05-17T21:22:50.264Z,69.91
2019-05-17T21:25:19.998Z,70.65
2019-05-17T21:27:49.809Z,71.08
2019-05-17T21:30:19.438Z,71.49
2019-05-17T21:32:49.032Z,71.64
2019-05-17T21:35:18.739Z,71.72
2019-05-17T21:37:48.414Z,72.45
2019-05-17T21:40:18.462Z,72.03
2019-05-17T21:42:49.736Z,71.97
2019-05-17T21:45:19.547Z,72.64
2019-05-17T21:47:49.475Z,72.63
2019-05-17T21:50:23.463Z,72.79
2019-05-17T21:52:53.086Z,72.99
2019-05-17T21:55:22.733Z,73.27
2019-05-17T21:57:52.551Z,73.71
2019-05-17T22:00:52.514Z,73.57
2019-05-17T22:03:23.797Z,73.49
2019-05-17T22:05:53.577Z,73.76
2019-05-17T22:08:24.809Z,73.42
2019-05-17T22:10:54.527Z,72.77
2019-05-17T22:13:24.073Z,72.89
2019-05-17T22:15:54.290Z,73.91
2019-05-17T22:18:24.011Z,73.66
2019-05-17T22:20:55.168Z,73.82
2019-05-17T22:23:24.991Z,74.08
2019-05-17T22:25:54.572Z,73.87
2019-05-17T22:28:24.225Z,74.12
2019-05-17T22:30:53.917Z,74.20
2019-05-17T22:33:23.589Z,74.05
2019-05-17T22:35:54.753Z,73.99
2019-05-17T22:38:24.376Z,73.39
2019-05-17T22:40:54.146Z,73.22
2019-05-17T22:43:23.817Z,73.36
2019-05-17T22:45:53.536Z,73.86
2019-05-17T22:48:23.227Z,73.75
2019-05-17T22:50:52.843Z,73.94
2019-05-17T22:53:22.515Z,73.73
2019-05-17T22:55:52.477Z,73.77
2019-05-17T22:58:22.120Z,73.39
2019-05-17T23:00:51.846Z,74.31
2019-05-17T23:03:21.915Z,74.54
2019-05-17T23:05:51.429Z,74.42
2019-05-17T23:08:21.062Z,74.33
2019-05-17T23:10:52.256Z,74.12
2019-05-17T23:13:21.868Z,73.70
2019-05-17T23:16:04.803Z,73.55
2019-05-17T23:18:35.394Z,73.78
2019-05-17T23:21:05.470Z,73.79
2019-05-17T23:23:37.097Z,73.65
2019-05-17T23:26:06.795Z,73.81
2019-05-17T23:28:36.492Z,73.76
2019-05-17T23:31:06.412Z,73.82
2019-05-17T23:33:35.965Z,74.41
2019-05-17T23:36:05.534Z,74.69
2019-05-17T23:38:35.246Z,74.33
2019-05-17T23:41:04.810Z,74.35
2019-05-17T23:43:34.851Z,74.42
2019-05-17T23:46:07.683Z,74.69
2019-05-17T23:48:37.310Z,74.01
2019-05-17T23:51:07.088Z,73.74
2019-05-17T23:53:36.655Z,73.80
2019-05-17T23:56:06.667Z,73.43
2019-05-17T23:58:36.259Z,73.30
